createdAt,value
2022-12-04T00:00:08.833Z,2.70
2022-12-04T00:02:36.132Z,2.70
2022-12-04T00:05:04.560Z,2.60
2022-12-04T00:07:31.698Z,2.70
2022-12-04T00:09:58.587Z,2.70
2022-12-04T00:12:25.463Z,2.60
2022-12-04T00:15:23.805Z,2.60
2022-12-04T00:17:39.210Z,2.70
2022-12-04T00:20:06.818Z,2.70
2022-12-04T00:22:33.885Z,2.70
2022-12-04T00:25:00.675Z,2.70
2022-12-04T00:27:27.427Z,2.70
2022-12-04T00:29:54.374Z,2.70
2022-12-04T00:32:21.583Z,2.70
2022-12-04T00:34:51.689Z,2.70
2022-12-04T00:37:18.656Z,2.80
2022-12-04T00:39:45.601Z,2.80
2022-12-04T00:42:12.379Z,2.80
2022-12-04T00:44:39.229Z,2.80
2022-12-04T00:47:06.010Z,2.80
2022-12-04T00:49:32.839Z,2.80
2022-12-04T00:51:59.649Z,2.80
2022-12-04T00:54:26.479Z,2.80
2022-12-04T00:56:53.235Z,2.80
2022-12-04T00:59:19.969Z,2.80
2022-12-04T01:01:46.713Z,2.70
2022-12-04T01:04:13.488Z,2.80
2022-12-04T01:06:40.246Z,2.70
2022-12-04T01:09:07.034Z,2.80
2022-12-04T01:11:34.055Z,2.80
2022-12-04T01:14:00.951Z,2.70
2022-12-04T01:16:31.899Z,2.80
2022-12-04T01:18:59.052Z,2.80
2022-12-04T01:21:26.834Z,2.80
2022-12-04T01:23:53.608Z,2.80
2022-12-04T01:26:20.374Z,2.80
2022-12-04T01:28:47.216Z,2.60
2022-12-04T01:31:16.834Z,2.70
2022-12-04T01:33:44.780Z,2.60
2022-12-04T01:36:14.520Z,2.50
2022-12-04T01:38:41.838Z,2.50
2022-12-04T01:41:10.828Z,2.50
2022-12-04T01:43:39.117Z,2.50
2022-12-04T01:46:07.361Z,2.50
2022-12-04T01:48:48.247Z,2.50
2022-12-04T01:51:25.888Z,2.70
2022-12-04T01:53:57.432Z,2.60
2022-12-04T01:56:29.415Z,2.60
2022-12-04T01:58:59.211Z,2.70
2022-12-04T02:01:31.520Z,2.60
2022-12-04T02:04:00.683Z,2.70
2022-12-04T02:06:27.555Z,2.70
2022-12-04T02:08:54.546Z,2.70
2022-12-04T02:11:31.399Z,2.80
2022-12-04T02:14:20.098Z,2.80
2022-12-04T02:16:54.399Z,2.90
2022-12-04T02:19:36.236Z,3.00
2022-12-04T02:22:21.583Z,3.00
2022-12-04T02:25:07.648Z,3.00
2022-12-04T02:27:40.714Z,2.90
2022-12-04T02:30:14.389Z,3.00
2022-12-04T02:32:47.071Z,2.90
2022-12-04T02:35:26.347Z,3.00
2022-12-04T02:38:09.302Z,3.00
2022-12-04T02:40:51.008Z,3.10
2022-12-04T02:43:27.160Z,3.10
2022-12-04T02:46:07.440Z,3.10
2022-12-04T02:48:38.964Z,3.10
2022-12-04T02:51:08.555Z,3.10
2022-12-04T02:53:40.037Z,3.20
2022-12-04T02:56:21.894Z,3.20
2022-12-04T02:59:02.701Z,3.20
2022-12-04T03:01:34.895Z,3.20
2022-12-04T03:04:19.688Z,3.20
2022-12-04T03:06:54.210Z,3.20
2022-12-04T03:09:31.438Z,3.30
2022-12-04T03:12:10.858Z,3.30
2022-12-04T03:14:44.366Z,3.30
2022-12-04T03:17:30.039Z,3.30
2022-12-04T03:20:01.662Z,3.40
2022-12-04T03:22:31.653Z,3.50
2022-12-04T03:24:59.009Z,3.40
2022-12-04T03:27:54.232Z,3.40
2022-12-04T03:30:22.836Z,3.40
2022-12-04T03:32:51.913Z,3.40
2022-12-04T03:35:43.666Z,3.50
2022-12-04T03:38:18.362Z,3.50
2022-12-04T03:40:48.029Z,3.50
2022-12-04T03:43:38.903Z,3.50
2022-12-04T03:46:14.598Z,3.50
2022-12-04T03:48:43.106Z,3.50
2022-12-04T03:51:20.892Z,3.50
2022-12-04T03:53:54.551Z,3.50
2022-12-04T03:56:33.110Z,3.60
2022-12-04T03:59:06.268Z,3.60
2022-12-04T04:01:38.765Z,3.50
2022-12-04T04:04:09.384Z,3.50
2022-12-04T04:06:52.796Z,3.50
2022-12-04T04:09:24.243Z,3.50
2022-12-04T04:12:06.736Z,3.60
2022-12-04T04:14:59.220Z,3.50
2022-12-04T04:17:38.009Z,3.50
2022-12-04T04:20:20.938Z,3.50
2022-12-04T04:22:55.839Z,3.50
2022-12-04T04:25:25.708Z,3.50
2022-12-04T04:27:58.225Z,3.60
2022-12-04T04:30:26.866Z,3.60
2022-12-04T04:33:10.062Z,3.50
2022-12-04T04:35:53.271Z,3.60
2022-12-04T04:38:20.078Z,3.60
2022-12-04T04:41:11.697Z,3.60
2022-12-04T04:44:02.396Z,3.60
2022-12-04T04:46:33.536Z,3.60
2022-12-04T04:49:04.768Z,3.60
2022-12-04T04:51:34.424Z,3.60
2022-12-04T04:54:06.427Z,3.60
2022-12-04T04:56:40.818Z,3.60
2022-12-04T04:59:07.688Z,3.60
2022-12-04T05:01:35.042Z,3.60
2022-12-04T05:04:06.879Z,3.60
2022-12-04T05:06:34.043Z,3.60
2022-12-04T05:09:00.881Z,3.60
2022-12-04T05:11:27.744Z,3.60
2022-12-04T05:13:54.669Z,3.60
2022-12-04T05:16:21.604Z,3.50
2022-12-04T05:18:48.410Z,3.50
2022-12-04T05:21:15.188Z,3.50
2022-12-04T05:23:42.062Z,3.50
2022-12-04T05:26:09.390Z,3.50
2022-12-04T05:28:36.144Z,3.50
2022-12-04T05:31:03.837Z,3.50
2022-12-04T05:33:31.161Z,3.50
2022-12-04T05:36:04.165Z,3.40
2022-12-04T05:38:31.339Z,3.40
2022-12-04T05:40:59.299Z,3.40
2022-12-04T05:43:26.529Z,3.40
2022-12-04T05:45:53.503Z,3.40
2022-12-04T05:48:20.723Z,3.30
2022-12-04T05:50:47.526Z,3.40
2022-12-04T05:53:14.423Z,3.40
2022-12-04T05:55:41.322Z,3.30
2022-12-04T05:58:08.321Z,3.40
2022-12-04T06:00:35.091Z,3.30
2022-12-04T06:03:01.973Z,3.40
2022-12-04T06:05:28.847Z,3.40
2022-12-04T06:07:55.655Z,3.40
2022-12-04T06:10:22.605Z,3.40
2022-12-04T06:12:49.430Z,3.30
2022-12-04T06:15:16.362Z,3.30
2022-12-04T06:17:43.139Z,3.30
2022-12-04T06:20:11.891Z,3.30
2022-12-04T06:22:39.068Z,3.40
2022-12-04T06:25:06.381Z,3.30
2022-12-04T06:27:33.148Z,3.30
2022-12-04T06:30:00.142Z,3.30
2022-12-04T06:32:26.991Z,3.30
2022-12-04T06:34:54.856Z,3.40
2022-12-04T06:37:26.307Z,3.40
2022-12-04T06:39:53.630Z,3.40
2022-12-04T06:42:20.655Z,3.50
2022-12-04T06:44:47.781Z,3.50
2022-12-04T06:47:14.515Z,3.60
2022-12-04T06:49:41.334Z,3.50
2022-12-04T06:52:08.198Z,3.50
2022-12-04T06:54:35.118Z,3.60
2022-12-04T06:57:01.898Z,3.60
2022-12-04T06:59:28.708Z,3.70
2022-12-04T07:01:55.537Z,3.70
2022-12-04T07:04:22.321Z,3.80
2022-12-04T07:06:49.107Z,3.80
2022-12-04T07:09:17.439Z,3.80
2022-12-04T07:11:45.524Z,3.80
2022-12-04T07:14:13.719Z,3.70
2022-12-04T07:16:42.389Z,3.70
2022-12-04T07:19:11.295Z,3.80
2022-12-04T07:21:38.181Z,3.80
2022-12-04T07:24:05.484Z,3.70
2022-12-04T07:26:32.794Z,3.70
2022-12-04T07:29:00.150Z,3.80
2022-12-04T07:31:29.001Z,3.80
2022-12-04T07:33:56.572Z,3.80
2022-12-04T07:36:24.915Z,3.80
2022-12-04T07:38:53.618Z,3.90
2022-12-04T07:41:20.596Z,3.90
2022-12-04T07:43:48.116Z,3.90
2022-12-04T07:46:19.398Z,4.00
2022-12-04T07:48:46.657Z,4.00
2022-12-04T07:51:16.339Z,4.10
2022-12-04T07:53:43.881Z,4.10
2022-12-04T07:56:12.268Z,4.20
2022-12-04T07:58:39.571Z,4.30
2022-12-04T08:01:12.541Z,4.30
2022-12-04T08:03:48.182Z,4.40
2022-12-04T08:06:18.324Z,4.40
2022-12-04T08:08:45.681Z,4.40
2022-12-04T08:11:15.015Z,4.40
2022-12-04T08:13:42.220Z,4.50
2022-12-04T08:16:11.457Z,4.50
2022-12-04T08:18:38.718Z,4.50
2022-12-04T08:21:09.627Z,4.60
2022-12-04T08:23:37.197Z,4.60
2022-12-04T08:26:05.553Z,4.70
2022-12-04T08:28:33.111Z,4.80
2022-12-04T08:31:08.556Z,4.80
2022-12-04T08:33:35.532Z,4.80
2022-12-04T08:36:05.977Z,4.90
2022-12-04T08:38:32.908Z,5.00
2022-12-04T08:41:01.237Z,4.90
2022-12-04T08:43:28.491Z,5.10
2022-12-04T08:46:00.977Z,5.20
2022-12-04T08:48:28.198Z,5.20
2022-12-04T08:50:55.723Z,5.30
2022-12-04T08:53:22.887Z,5.40
2022-12-04T08:55:50.514Z,5.40
2022-12-04T08:58:18.257Z,5.50
2022-12-04T09:00:45.858Z,5.40
2022-12-04T09:03:15.649Z,5.40
2022-12-04T09:05:43.766Z,5.30
2022-12-04T09:08:11.101Z,5.40
2022-12-04T09:10:39.363Z,5.60
2022-12-04T09:13:06.869Z,5.50
2022-12-04T09:15:34.169Z,5.40
2022-12-04T09:18:01.512Z,5.40
2022-12-04T09:20:31.806Z,5.30
2022-12-04T09:23:04.275Z,5.20
2022-12-04T09:25:37.352Z,5.30
2022-12-04T09:28:05.165Z,5.30
2022-12-04T09:30:33.616Z,5.30
2022-12-04T09:33:01.283Z,5.20
2022-12-04T09:35:28.156Z,5.30
2022-12-04T09:37:55.300Z,5.30
2022-12-04T09:40:37.897Z,5.30
2022-12-04T09:43:27.204Z,5.40
2022-12-04T09:45:58.804Z,5.30
2022-12-04T09:48:42.435Z,5.40
2022-12-04T09:51:11.346Z,5.50
2022-12-04T09:54:13.374Z,5.60
2022-12-04T09:56:44.012Z,5.60
2022-12-04T09:59:25.262Z,5.60
2022-12-04T10:01:57.104Z,5.70
2022-12-04T10:04:25.104Z,5.60
2022-12-04T10:07:16.589Z,5.70
2022-12-04T10:09:57.994Z,5.70
2022-12-04T10:12:54.396Z,5.70
2022-12-04T10:15:30.923Z,5.80
2022-12-04T10:18:07.155Z,5.80
2022-12-04T10:21:02.565Z,5.90
2022-12-04T10:23:57.387Z,6.00
2022-12-04T10:26:33.411Z,6.30
2022-12-04T10:29:06.120Z,6.10
2022-12-04T10:31:36.892Z,6.10
2022-12-04T10:34:16.476Z,6.20
2022-12-04T10:36:49.239Z,6.30
2022-12-04T10:39:27.262Z,6.50
2022-12-04T10:42:06.412Z,6.60
2022-12-04T10:44:33.940Z,6.60
2022-12-04T10:47:03.094Z,6.60
2022-12-04T10:49:32.729Z,6.50
2022-12-04T10:51:59.666Z,6.60
2022-12-04T10:54:35.481Z,6.60
2022-12-04T10:57:05.735Z,6.70
2022-12-04T10:59:32.774Z,6.60
2022-12-04T11:02:21.219Z,6.70
2022-12-04T11:05:02.808Z,6.80
2022-12-04T11:07:34.430Z,6.80
2022-12-04T11:10:17.170Z,6.70
2022-12-04T11:12:57.514Z,6.80
2022-12-04T11:15:25.371Z,6.80
2022-12-04T11:17:52.459Z,6.80
2022-12-04T11:20:26.311Z,6.80
2022-12-04T11:22:57.386Z,6.80
2022-12-04T11:25:29.206Z,6.70
2022-12-04T11:27:59.988Z,6.80
2022-12-04T11:30:36.230Z,6.80
2022-12-04T11:33:07.191Z,6.80
2022-12-04T11:35:38.235Z,6.90
2022-12-04T11:38:17.938Z,6.80
2022-12-04T11:40:54.271Z,6.80
2022-12-04T11:43:25.111Z,6.80
2022-12-04T11:45:58.460Z,6.90
2022-12-04T11:48:29.476Z,6.90
2022-12-04T11:51:25.969Z,6.90
2022-12-04T11:53:59.759Z,6.90
2022-12-04T11:56:30.348Z,6.90
2022-12-04T11:59:17.527Z,6.90
2022-12-04T12:02:09.775Z,6.90
2022-12-04T12:05:12.142Z,6.90
2022-12-04T12:08:03.321Z,6.80
2022-12-04T12:10:30.180Z,6.80
2022-12-04T12:13:14.918Z,6.90
2022-12-04T12:15:48.500Z,6.90
2022-12-04T12:18:37.603Z,6.90
2022-12-04T12:21:26.643Z,6.90
2022-12-04T12:24:14.626Z,6.90
2022-12-04T12:26:46.186Z,6.90
2022-12-04T12:29:19.247Z,6.90
2022-12-04T12:32:15.255Z,6.90
2022-12-04T12:34:45.993Z,6.80
2022-12-04T12:37:31.150Z,6.80
2022-12-04T12:40:23.225Z,6.80
2022-12-04T12:43:00.181Z,6.80
2022-12-04T12:45:37.979Z,6.80
2022-12-04T12:48:24.107Z,6.70
2022-12-04T12:51:28.480Z,6.80
2022-12-04T12:53:54.427Z,6.80
2022-12-04T12:56:31.752Z,6.80
2022-12-04T12:59:04.295Z,6.80
2022-12-04T13:01:43.921Z,6.80
2022-12-04T13:04:30.553Z,6.70
2022-12-04T13:07:29.195Z,6.80
2022-12-04T13:10:02.286Z,6.80
2022-12-04T13:12:35.001Z,6.80
2022-12-04T13:15:01.886Z,6.90
2022-12-04T13:17:35.951Z,6.80
2022-12-04T13:20:13.690Z,6.70
2022-12-04T13:23:01.091Z,6.80
2022-12-04T13:26:02.074Z,6.70
2022-12-04T13:29:04.479Z,6.80
2022-12-04T13:31:52.419Z,6.80
2022-12-04T13:34:44.055Z,6.70
2022-12-04T13:37:48.366Z,6.70
2022-12-04T13:40:19.066Z,6.70
2022-12-04T13:42:46.210Z,6.70
2022-12-04T13:45:27.195Z,6.70
2022-12-04T13:48:02.916Z,6.70
2022-12-04T13:50:36.838Z,6.70
2022-12-04T13:53:04.187Z,6.70
2022-12-04T13:55:33.006Z,6.70
2022-12-04T13:58:30.698Z,6.60
2022-12-04T14:01:02.002Z,6.70
2022-12-04T14:03:34.170Z,6.70
2022-12-04T14:06:03.705Z,6.60
2022-12-04T14:08:39.028Z,6.60
2022-12-04T14:11:08.613Z,6.70
2022-12-04T14:13:50.190Z,6.60
2022-12-04T14:16:38.986Z,6.70
2022-12-04T14:19:07.140Z,6.80
2022-12-04T14:21:46.474Z,6.70
2022-12-04T14:24:27.922Z,6.70
2022-12-04T14:27:15.852Z,6.70
2022-12-04T14:29:54.500Z,6.50
2022-12-04T14:32:29.004Z,6.60
2022-12-04T14:34:57.716Z,6.50
2022-12-04T14:37:28.521Z,6.40
2022-12-04T14:39:57.763Z,6.50
2022-12-04T14:42:27.624Z,6.60
2022-12-04T14:45:00.158Z,6.60
2022-12-04T14:47:46.068Z,6.50
2022-12-04T14:50:22.260Z,6.40
2022-12-04T14:53:01.524Z,6.50
2022-12-04T14:55:42.047Z,6.40
2022-12-04T14:58:18.923Z,6.20
2022-12-04T15:00:51.999Z,6.20
2022-12-04T15:03:19.428Z,6.10
2022-12-04T15:05:48.031Z,6.20
2022-12-04T15:08:16.928Z,6.10
2022-12-04T15:10:51.858Z,5.90
2022-12-04T15:13:26.103Z,5.90
2022-12-04T15:15:53.873Z,5.70
2022-12-04T15:18:21.471Z,5.70
2022-12-04T15:20:48.800Z,5.70
2022-12-04T15:23:32.084Z,5.70
2022-12-04T15:26:03.282Z,5.80
2022-12-04T15:28:52.531Z,5.90
2022-12-04T15:31:24.383Z,5.90
2022-12-04T15:33:56.469Z,6.00
2022-12-04T15:36:49.322Z,6.00
2022-12-04T15:39:21.754Z,6.00
2022-12-04T15:41:49.249Z,6.00
2022-12-04T15:44:30.468Z,6.00
2022-12-04T15:47:00.483Z,6.00
2022-12-04T15:49:32.476Z,6.00
2022-12-04T15:52:23.621Z,6.00
2022-12-04T15:55:02.106Z,6.00
2022-12-04T15:57:33.376Z,6.10
2022-12-04T16:00:01.412Z,6.10
2022-12-04T16:02:33.055Z,6.10
2022-12-04T16:05:11.961Z,6.10
2022-12-04T16:07:52.170Z,6.10
2022-12-04T16:10:29.444Z,6.00
2022-12-04T16:12:59.324Z,6.10
2022-12-04T16:15:34.754Z,6.10
2022-12-04T16:18:04.260Z,6.00
2022-12-04T16:20:31.798Z,6.00
2022-12-04T16:22:59.996Z,6.00
2022-12-04T16:25:27.526Z,5.90
2022-12-04T16:27:55.086Z,5.90
2022-12-04T16:30:22.566Z,5.90
2022-12-04T16:32:50.003Z,5.90
2022-12-04T16:35:17.898Z,6.00
2022-12-04T16:37:45.604Z,6.00
2022-12-04T16:40:14.785Z,6.00
2022-12-04T16:42:44.440Z,6.00
2022-12-04T16:45:21.036Z,6.00
2022-12-04T16:47:49.337Z,6.00
2022-12-04T16:50:18.084Z,6.00
2022-12-04T16:52:45.416Z,5.90
2022-12-04T16:55:41.109Z,5.90
2022-12-04T16:58:09.206Z,6.00
2022-12-04T17:00:37.714Z,5.90
2022-12-04T17:03:05.597Z,5.90
2022-12-04T17:05:33.998Z,5.90
2022-12-04T17:08:01.724Z,5.90
2022-12-04T17:10:31.852Z,5.80
2022-12-04T17:12:59.757Z,5.90
2022-12-04T17:15:26.717Z,5.80
2022-12-04T17:17:54.212Z,5.90
2022-12-04T17:20:21.968Z,5.80
2022-12-04T17:22:49.919Z,5.80
2022-12-04T17:25:22.047Z,5.80
2022-12-04T17:27:50.092Z,5.80
2022-12-04T17:30:17.637Z,5.90
2022-12-04T17:32:45.823Z,5.90
2022-12-04T17:35:14.098Z,5.90
2022-12-04T17:37:43.166Z,5.90
2022-12-04T17:40:11.123Z,5.90
2022-12-04T17:42:38.194Z,5.90
2022-12-04T17:45:06.062Z,5.90
2022-12-04T17:47:35.374Z,5.90
2022-12-04T17:50:03.295Z,5.90
2022-12-04T17:52:31.834Z,5.90
2022-12-04T17:54:59.647Z,5.90
2022-12-04T17:57:28.865Z,5.90
2022-12-04T17:59:56.655Z,5.90
2022-12-04T18:02:24.247Z,5.80
2022-12-04T18:04:54.736Z,5.80
2022-12-04T18:07:22.362Z,5.80
2022-12-04T18:09:49.442Z,5.80
2022-12-04T18:12:16.743Z,5.80
2022-12-04T18:14:44.410Z,5.70
2022-12-04T18:17:12.340Z,5.70
2022-12-04T18:19:39.662Z,5.70
2022-12-04T18:22:06.974Z,5.70
2022-12-04T18:24:34.396Z,5.70
2022-12-04T18:27:01.466Z,5.70
2022-12-04T18:29:28.905Z,5.70
2022-12-04T18:31:56.621Z,5.70
2022-12-04T18:34:23.934Z,5.70
2022-12-04T18:36:51.180Z,5.60
2022-12-04T18:39:23.898Z,5.60
2022-12-04T18:41:54.875Z,5.60
2022-12-04T18:44:21.975Z,5.60
2022-12-04T18:46:48.746Z,5.60
2022-12-04T18:49:16.196Z,5.60
2022-12-04T18:51:49.131Z,5.60
2022-12-04T18:54:23.682Z,5.60
2022-12-04T18:56:53.270Z,5.50
2022-12-04T18:59:27.301Z,5.50
2022-12-04T19:01:54.878Z,5.50
2022-12-04T19:04:23.818Z,5.50
2022-12-04T19:06:54.173Z,5.50
2022-12-04T19:09:54.237Z,5.50
2022-12-04T19:12:15.842Z,5.50
2022-12-04T19:14:43.210Z,5.50
2022-12-04T19:17:13.798Z,5.50
2022-12-04T19:19:41.186Z,5.60
2022-12-04T19:22:09.208Z,5.50
2022-12-04T19:24:36.169Z,5.50
2022-12-04T19:27:03.476Z,5.50
2022-12-04T19:29:31.051Z,5.50
2022-12-04T19:31:59.668Z,5.50
2022-12-04T19:34:27.690Z,5.50
2022-12-04T19:36:55.906Z,5.50
2022-12-04T19:39:28.371Z,5.50
2022-12-04T19:41:55.522Z,5.50
2022-12-04T19:44:47.801Z,5.50
2022-12-04T19:47:13.354Z,5.50
2022-12-04T19:49:41.713Z,5.50
2022-12-04T19:52:10.267Z,5.50
2022-12-04T19:54:38.929Z,5.50
2022-12-04T19:57:07.054Z,5.40
2022-12-04T19:59:37.682Z,5.40
2022-12-04T20:02:06.632Z,5.40
2022-12-04T20:04:34.074Z,5.40
2022-12-04T20:07:04.595Z,5.40
2022-12-04T20:09:32.609Z,5.40
2022-12-04T20:12:00.214Z,5.30
2022-12-04T20:14:27.598Z,5.30
2022-12-04T20:16:55.034Z,5.30
2022-12-04T20:19:23.645Z,5.30
2022-12-04T20:21:53.679Z,5.30
2022-12-04T20:24:23.448Z,5.20
2022-12-04T20:26:51.668Z,5.20
2022-12-04T20:29:19.000Z,5.30
2022-12-04T20:31:47.001Z,5.20
2022-12-04T20:34:17.603Z,5.30
2022-12-04T20:36:46.739Z,5.30
2022-12-04T20:39:15.598Z,5.30
2022-12-04T20:41:43.311Z,5.30
2022-12-04T20:44:14.541Z,5.40
2022-12-04T20:46:42.596Z,5.40
2022-12-04T20:49:21.768Z,5.40
2022-12-04T20:51:51.688Z,5.40
2022-12-04T20:54:21.334Z,5.40
2022-12-04T20:56:49.666Z,5.40
2022-12-04T20:59:20.062Z,5.40
2022-12-04T21:01:47.652Z,5.30
2022-12-04T21:04:15.383Z,5.30
2022-12-04T21:06:43.589Z,5.10
2022-12-04T21:09:22.634Z,5.10
2022-12-04T21:11:54.922Z,5.10
2022-12-04T21:14:23.775Z,5.20
2022-12-04T21:16:51.620Z,5.10
2022-12-04T21:19:21.783Z,5.10
2022-12-04T21:21:49.633Z,5.10
2022-12-04T21:24:19.366Z,5.10
2022-12-04T21:26:46.967Z,5.00
2022-12-04T21:29:14.477Z,5.00
2022-12-04T21:31:41.714Z,5.00
2022-12-04T21:34:11.914Z,4.90
2022-12-04T21:36:39.041Z,4.90
2022-12-04T21:39:07.006Z,5.00
2022-12-04T21:41:34.490Z,5.00
2022-12-04T21:44:04.550Z,5.00
2022-12-04T21:46:31.446Z,5.00
2022-12-04T21:48:59.184Z,5.00
2022-12-04T21:51:55.632Z,5.00
2022-12-04T21:54:13.932Z,4.90
2022-12-04T21:56:40.777Z,4.90
2022-12-04T21:59:07.682Z,5.00
2022-12-04T22:01:35.021Z,4.90
2022-12-04T22:04:01.835Z,4.90
2022-12-04T22:06:29.051Z,4.80
2022-12-04T22:08:55.997Z,4.90
2022-12-04T22:11:22.834Z,4.90
2022-12-04T22:13:49.615Z,4.80
2022-12-04T22:16:18.087Z,4.80
2022-12-04T22:18:45.902Z,4.90
2022-12-04T22:21:14.748Z,4.90
2022-12-04T22:23:42.165Z,4.90
2022-12-04T22:26:13.624Z,4.90
2022-12-04T22:28:41.464Z,4.90
2022-12-04T22:31:11.631Z,4.90
2022-12-04T22:33:39.189Z,4.90
2022-12-04T22:36:14.612Z,4.80
2022-12-04T22:39:07.711Z,4.90
2022-12-04T22:41:28.562Z,4.90
2022-12-04T22:43:55.392Z,4.90
2022-12-04T22:46:22.356Z,4.80
2022-12-04T22:48:49.167Z,4.80
2022-12-04T22:51:21.466Z,4.80
2022-12-04T22:53:50.614Z,4.90
2022-12-04T22:56:24.113Z,4.80
2022-12-04T22:58:51.745Z,4.80
2022-12-04T23:01:21.601Z,4.80
2022-12-04T23:03:49.269Z,4.70
2022-12-04T23:06:17.245Z,4.70
2022-12-04T23:08:45.053Z,4.70
2022-12-04T23:11:18.257Z,4.70
2022-12-04T23:13:50.278Z,4.70
2022-12-04T23:16:20.326Z,4.60
2022-12-04T23:18:48.277Z,4.60
2022-12-04T23:21:16.415Z,4.60
2022-12-04T23:23:44.547Z,4.70
2022-12-04T23:26:17.942Z,4.50
2022-12-04T23:28:44.823Z,4.60
2022-12-04T23:31:11.858Z,4.60
2022-12-04T23:33:39.647Z,4.60
2022-12-04T23:36:08.618Z,4.60
2022-12-04T23:38:37.447Z,4.50
2022-12-04T23:41:07.891Z,4.60
2022-12-04T23:43:35.137Z,4.50
2022-12-04T23:46:05.871Z,4.50
2022-12-04T23:48:35.887Z,4.50
2022-12-04T23:51:02.891Z,4.40
2022-12-04T23:53:29.898Z,4.40
2022-12-04T23:55:58.938Z,4.30
2022-12-04T23:58:26.286Z,4.30
